Time;durP1;ratioP1;P1;durP2;ratioP2;P2;SDS_P1;SDS_P2;PMS_P1;PMS_P2;Temp;Humidity;BMP_temperature;BMP_pressure;BME280_temperature;BME280_humidity;BME280_pressure;Samples;Min_cycle;Max_cycle;Signal;HPM_P1;HPM_P2
2022/07/09 00:02:23;;;;;;;3.33;3.03;;;19.00;99.90;;;19.46;75.55;94879.75;5053532;28;20451;-59
2022/07/09 00:04:52;;;;;;;2.63;2.47;;;19.00;99.90;;;19.46;75.03;94879.75;5051450;28;20865;-59
2022/07/09 00:07:19;;;;;;;3.30;3.00;;;19.00;99.90;;;19.46;75.24;94882.41;5051315;28;20448;-58
2022/07/09 00:09:46;;;;;;;3.70;2.37;;;19.00;99.90;;;19.44;75.55;94882.63;5057086;28;20459;-59
2022/07/09 00:12:13;;;;;;;2.77;2.57;;;19.00;99.90;;;19.44;75.19;94879.94;5056706;28;20471;-61
2022/07/09 00:14:41;;;;;;;3.47;2.50;;;19.00;99.90;;;19.44;74.91;94879.09;5055548;28;20459;-59
2022/07/09 00:17:08;;;;;;;3.93;2.90;;;19.00;99.90;;;19.45;76.13;94888.75;5057234;28;20480;-59
2022/07/09 00:19:35;;;;;;;4.27;2.17;;;19.00;99.90;;;19.43;75.87;94894.28;5049866;28;21199;-59
2022/07/09 00:22:05;;;;;;;2.50;2.40;;;19.00;99.90;;;19.44;75.76;94889.78;5053800;28;20478;-58
2022/07/09 00:24:32;;;;;;;2.70;2.50;;;19.00;99.90;;;19.45;75.28;94881.56;5053718;28;20958;-59
2022/07/09 00:27:00;;;;;;;9.33;3.30;;;19.00;99.90;;;19.47;75.16;94876.03;5056969;28;20562;-59
2022/07/09 00:29:27;;;;;;;3.47;3.17;;;19.00;99.90;;;19.48;75.57;94875.03;5058403;28;20805;-60
2022/07/09 00:31:55;;;;;;;2.63;2.47;;;19.00;99.90;;;19.51;75.83;94874.66;5050812;28;20482;-58
2022/07/09 00:34:22;;;;;;;9.00;2.63;;;19.10;99.90;;;19.52;75.74;94870.97;5053107;28;20451;-59
2022/07/09 00:36:49;;;;;;;2.90;2.70;;;19.10;99.90;;;19.54;75.95;94868.91;5046487;28;21011;-59
2022/07/09 00:39:18;;;;;;;2.63;2.43;;;19.10;99.90;;;19.57;75.74;94870.38;5051992;28;20490;-59
2022/07/09 00:41:45;;;;;;;6.47;3.07;;;19.10;99.90;;;19.56;75.64;94858.88;5057202;28;20487;-58
2022/07/09 00:44:12;;;;;;;2.80;2.10;;;19.10;99.90;;;19.59;76.07;94858.47;5054635;28;20451;-59
2022/07/09 00:46:40;;;;;;;2.40;2.20;;;19.10;99.90;;;19.60;75.75;94862.00;5054793;28;20482;-58
2022/07/09 00:49:07;;;;;;;2.57;2.37;;;19.10;99.90;;;19.60;75.24;94856.66;5059265;28;20455;-59
2022/07/09 00:51:34;;;;;;;2.80;2.13;;;19.20;99.90;;;19.58;75.45;94851.50;5050875;28;20488;-58
2022/07/09 00:54:02;;;;;;;2.10;2.00;;;19.20;99.90;;;19.57;75.28;94865.88;5060005;28;20451;-58
2022/07/09 00:56:31;;;;;;;2.30;2.10;;;19.10;99.90;;;19.57;74.65;94849.03;5048739;28;20487;-59
2022/07/09 00:58:58;;;;;;;6.30;1.80;;;19.10;99.90;;;19.56;75.42;94844.72;5051933;28;20498;-59
2022/07/09 01:01:26;;;;;;;2.43;2.33;;;19.10;99.90;;;19.54;75.52;94842.25;5053594;28;20482;-58
2022/07/09 01:03:53;;;;;;;6.93;2.43;;;19.10;99.90;;;19.55;75.03;94846.56;5055583;28;20450;-58
2022/07/09 01:06:20;;;;;;;2.43;2.33;;;19.10;99.90;;;19.53;75.35;94833.44;5054977;28;20470;-59
2022/07/09 01:08:48;;;;;;;3.30;2.30;;;19.10;99.90;;;19.52;75.24;94838.97;5056280;28;20455;-59
2022/07/09 01:11:15;;;;;;;2.47;2.27;;;19.10;99.90;;;19.52;75.09;94830.94;5053432;28;20553;-59
2022/07/09 01:13:44;;;;;;;2.40;2.30;;;19.10;99.90;;;19.51;74.78;94830.09;5058739;28;20944;-59
2022/07/09 01:16:15;;;;;;;2.70;2.10;;;19.10;99.90;;;19.51;74.79;94831.97;5050594;28;20807;-58
2022/07/09 01:18:44;;;;;;;5.10;2.30;;;19.10;99.90;;;19.50;75.24;94831.16;5053069;28;20526;-59
2022/07/09 01:21:13;;;;;;;2.40;2.20;;;19.10;99.90;;;19.49;74.76;94828.69;5052650;28;20468;-59
2022/07/09 01:23:40;;;;;;;3.33;2.50;;;19.10;99.90;;;19.48;74.78;94827.84;5056182;28;20447;-60
2022/07/09 01:26:08;;;;;;;2.70;2.60;;;19.10;99.90;;;19.48;74.75;94827.03;5057054;28;20478;-59
2022/07/09 01:28:35;;;;;;;5.27;2.00;;;19.00;99.90;;;19.47;74.46;94831.53;5056835;28;20474;-58
2022/07/09 01:31:03;;;;;;;2.77;1.93;;;19.00;99.90;;;19.44;75.02;94821.25;5052976;28;20807;-59
2022/07/09 01:33:31;;;;;;;2.40;2.30;;;19.00;99.90;;;19.45;74.82;94822.06;5050325;28;20451;-58
2022/07/09 01:35:59;;;;;;;1.90;1.80;;;19.00;99.90;;;19.45;74.82;94816.75;5059095;28;20470;-59
2022/07/09 01:38:27;;;;;;;7.93;2.30;;;19.00;99.90;;;19.44;74.64;94818.59;5051677;28;20498;-58
2022/07/09 01:40:55;;;;;;;4.80;2.27;;;19.00;99.90;;;19.44;74.63;94820.41;5056739;28;20474;-60
2022/07/09 01:43:22;;;;;;;2.67;2.50;;;19.00;99.90;;;19.42;75.11;94817.94;5062682;28;20458;-58
2022/07/09 01:45:50;;;;;;;2.23;2.13;;;19.00;99.90;;;19.43;74.53;94821.47;5063716;28;20995;-58
2022/07/09 01:48:17;;;;;;;8.50;2.60;;;19.00;99.90;;;19.43;74.74;94816.13;5062551;28;20485;-57
2022/07/09 01:50:44;;;;;;;2.63;2.10;;;19.00;99.90;;;19.42;74.28;94817.13;5059198;28;20536;-58
2022/07/09 01:53:12;;;;;;;3.53;1.97;;;19.00;99.90;;;19.41;74.71;94816.31;5052071;28;20452;-59
2022/07/09 01:55:41;;;;;;;3.57;2.23;;;19.00;99.90;;;19.39;73.89;94823.66;5049494;28;21003;-59
2022/07/09 01:58:08;;;;;;;3.47;2.33;;;19.00;99.90;;;19.38;74.23;94826.53;5055204;28;20494;-59
2022/07/09 02:00:35;;;;;;;2.17;2.07;;;19.00;99.90;;;19.37;74.55;94822.25;5054334;28;20471;-59
2022/07/09 02:03:03;;;;;;;1.90;1.80;;;18.90;99.90;;;19.35;74.27;94828.59;5052634;28;20478;-58
2022/07/09 02:05:30;;;;;;;2.90;1.93;;;18.90;99.90;;;19.34;74.52;94821.59;5056602;28;20475;-59
2022/07/09 02:07:57;;;;;;;2.00;1.90;;;18.90;99.90;;;19.34;74.30;94820.78;5053179;28;20769;-59
2022/07/09 02:10:25;;;;;;;2.30;2.20;;;18.90;99.90;;;19.33;74.31;94827.97;5058488;28;20476;-58
2022/07/09 02:12:53;;;;;;;2.13;1.70;;;18.90;99.90;;;19.31;74.04;94819.31;5046939;28;20448;-57
2022/07/09 02:15:21;;;;;;;1.80;1.70;;;18.90;99.90;;;19.29;74.38;94820.56;5057411;28;20474;-59
2022/07/09 02:17:49;;;;;;;1.90;1.80;;;18.90;99.90;;;19.28;74.36;94826.88;5061285;28;20447;-58
2022/07/09 02:20:16;;;;;;;1.93;1.83;;;18.90;99.90;;;19.26;74.12;94820.94;5057678;28;20592;-58
2022/07/09 02:22:43;;;;;;;4.70;2.00;;;18.90;99.90;;;19.24;74.44;94825.63;5057855;28;20452;-59
2022/07/09 02:25:11;;;;;;;2.20;2.10;;;18.90;99.90;;;19.23;73.84;94826.66;5060380;28;20450;-59
2022/07/09 02:27:38;;;;;;;1.97;1.87;;;18.80;99.90;;;19.23;74.29;94826.66;5056100;28;20521;-58
2022/07/09 02:30:08;;;;;;;2.53;2.33;;;18.80;99.90;;;19.25;74.35;94832.63;5061134;28;20462;-59
2022/07/09 02:32:36;;;;;;;4.20;2.10;;;18.80;99.90;;;19.24;73.93;94837.13;5050492;28;20531;-58
2022/07/09 02:35:03;;;;;;;2.00;1.90;;;18.80;99.90;;;19.24;74.15;94836.28;5056616;28;20535;-59
2022/07/09 02:37:31;;;;;;;2.50;2.40;;;18.80;99.90;;;19.25;74.36;94833.44;5054820;28;21109;-58
2022/07/09 02:39:59;;;;;;;2.57;2.37;;;18.80;99.90;;;19.26;74.90;94842.28;5061140;28;21267;-59
2022/07/09 02:42:26;;;;;;;2.07;1.97;;;18.80;99.90;;;19.27;74.37;94844.75;5059019;28;20451;-59
2022/07/09 02:44:53;;;;;;;3.27;2.60;;;18.80;99.90;;;19.29;74.43;94847.22;5058215;28;20455;-59
2022/07/09 02:47:22;;;;;;;2.53;2.43;;;18.80;99.90;;;19.27;74.21;94842.06;5055318;28;20881;-58
2022/07/09 02:49:49;;;;;;;2.70;2.50;;;18.90;99.90;;;19.26;74.52;94840.41;5052874;28;20463;-59
2022/07/09 02:52:17;;;;;;;4.17;2.60;;;18.90;99.90;;;19.27;74.54;94838.56;5050186;28;20460;-59
2022/07/09 02:54:44;;;;;;;1.60;1.50;;;18.90;99.90;;;19.29;74.40;94852.56;5052735;28;20455;-59
2022/07/09 02:57:13;;;;;;;3.40;3.20;;;18.90;99.90;;;19.29;74.41;94842.69;5057204;28;20467;-58
2022/07/09 02:59:40;;;;;;;2.27;2.07;;;18.90;99.90;;;19.29;74.16;94850.69;5056942;28;20911;-58
2022/07/09 03:02:07;;;;;;;2.47;2.37;;;18.90;99.90;;;19.30;74.30;94846.19;5056760;28;20476;-58
2022/07/09 03:04:36;;;;;;;3.87;2.70;;;18.90;99.90;;;19.27;74.51;94844.75;5061251;28;20456;-59
2022/07/09 03:07:04;;;;;;;2.70;2.50;;;18.90;99.90;;;19.28;74.81;94849.03;5053869;28;20468;-60
2022/07/09 03:09:31;;;;;;;2.13;2.03;;;18.90;99.90;;;19.27;74.68;94850.06;5054392;28;20463;-58
2022/07/09 03:11:58;;;;;;;2.40;2.30;;;18.90;99.90;;;19.25;74.03;94849.44;5051547;28;20480;-59
2022/07/09 03:14:26;;;;;;;2.13;2.03;;;18.80;99.90;;;19.23;74.15;94853.31;5053645;28;20466;-59
2022/07/09 03:16:53;;;;;;;2.23;2.13;;;18.80;99.90;;;19.23;74.45;94851.47;5060368;28;20586;-59
2022/07/09 03:19:21;;;;;;;4.50;3.27;;;18.80;99.90;;;19.24;74.48;94855.78;5057102;28;20866;-59
2022/07/09 03:21:49;;;;;;;2.10;2.00;;;18.80;99.90;;;19.23;75.34;94846.13;5058928;28;20479;-58
2022/07/09 03:24:16;;;;;;;4.27;2.53;;;18.80;99.90;;;19.25;75.36;94851.28;5052665;28;20475;-58
2022/07/09 03:26:44;;;;;;;3.43;2.30;;;18.80;99.90;;;19.26;75.20;94851.09;5054403;28;20919;-59
2022/07/09 03:29:11;;;;;;;2.17;1.93;;;18.80;99.90;;;19.27;74.55;94842.06;5047037;28;20964;-60
2022/07/09 03:31:38;;;;;;;2.37;2.27;;;18.90;99.90;;;19.25;74.32;94852.09;5051994;28;20476;-59
2022/07/09 03:34:06;;;;;;;2.33;2.23;;;18.80;99.90;;;19.25;74.68;94848.63;5057948;28;20887;-58
2022/07/09 03:36:34;;;;;;;3.47;2.47;;;18.90;99.90;;;19.22;75.33;94849.81;5054530;28;20529;-59
2022/07/09 03:39:03;;;;;;;3.23;2.03;;;18.80;99.90;;;19.14;74.60;94850.78;5058110;28;20505;-58
2022/07/09 03:41:30;;;;;;;3.87;2.07;;;18.80;99.90;;;19.09;74.59;94853.22;5056667;28;20483;-59
2022/07/09 03:43:58;;;;;;;2.53;2.43;;;18.70;99.90;;;19.05;74.86;94853.78;5057104;28;20451;-58
2022/07/09 03:46:25;;;;;;;2.90;2.80;;;18.70;99.90;;;18.99;74.62;94853.56;5058401;28;20557;-58
2022/07/09 03:48:53;;;;;;;2.57;2.13;;;18.60;99.90;;;18.96;74.78;94848.59;5048184;28;20967;-59
2022/07/09 03:51:20;;;;;;;3.90;2.50;;;18.60;99.90;;;18.96;75.00;94853.94;5050568;28;20479;-59
2022/07/09 03:53:47;;;;;;;2.67;2.47;;;18.60;99.90;;;18.98;75.58;94849.22;5059399;28;20452;-58
2022/07/09 03:56:16;;;;;;;3.00;2.73;;;18.60;99.90;;;18.99;75.12;94860.69;5058402;28;20853;-58
2022/07/09 03:58:44;;;;;;;2.63;2.53;;;18.60;99.90;;;18.99;75.41;94858.88;5057120;28;20482;-58
2022/07/09 04:01:11;;;;;;;2.40;2.20;;;18.60;99.90;;;18.95;75.65;94860.28;5055873;28;20479;-58
2022/07/09 04:03:38;;;;;;;6.10;2.70;;;18.60;99.90;;;18.93;75.37;94864.97;5056359;28;20474;-59
2022/07/09 04:06:06;;;;;;;5.00;2.90;;;18.50;99.90;;;18.92;74.88;94858.00;5057470;28;20554;-59
2022/07/09 04:08:33;;;;;;;2.30;2.20;;;18.50;99.90;;;18.89;75.10;94858.38;5050955;28;21003;-59
2022/07/09 04:11:01;;;;;;;2.70;2.60;;;18.50;99.90;;;18.90;75.92;94862.69;5057874;28;20471;-59
2022/07/09 04:13:30;;;;;;;2.73;2.50;;;18.50;99.90;;;18.91;75.70;94866.19;5051306;28;20660;-60
2022/07/09 04:15:57;;;;;;;4.60;2.70;;;18.50;99.90;;;18.92;75.60;94867.84;5055578;28;20468;-59
2022/07/09 04:18:24;;;;;;;6.97;2.20;;;18.50;99.90;;;18.89;75.98;94866.38;5056059;28;20450;-59
2022/07/09 04:20:52;;;;;;;2.83;2.73;;;18.50;99.90;;;18.86;76.07;94869.41;5054138;28;20871;-60
2022/07/09 04:23:19;;;;;;;3.13;2.40;;;18.50;99.90;;;18.85;76.18;94870.44;5059331;28;20819;-59
2022/07/09 04:25:48;;;;;;;3.50;3.30;;;18.50;99.90;;;18.85;75.75;94872.28;5047878;28;20472;-59
2022/07/09 04:28:15;;;;;;;2.50;2.33;;;18.50;99.90;;;18.89;75.71;94876.22;5054033;28;20456;-59
2022/07/09 04:30:44;;;;;;;3.27;3.00;;;18.50;99.90;;;18.92;75.64;94876.66;5048970;28;20992;-58
2022/07/09 04:33:12;;;;;;;5.97;3.20;;;18.50;99.90;;;18.95;75.82;94881.59;5055530;28;20451;-58
2022/07/09 04:35:39;;;;;;;3.40;3.20;;;18.50;99.90;;;18.95;75.90;94873.59;5055987;28;20494;-59
2022/07/09 04:38:07;;;;;;;3.20;3.00;;;18.60;99.90;;;18.98;76.07;94870.56;5056459;28;20447;-59
2022/07/09 04:40:34;;;;;;;2.90;2.60;;;18.60;99.90;;;19.03;75.70;94869.16;5052351;28;20491;-58
2022/07/09 04:43:01;;;;;;;3.03;2.83;;;18.60;99.90;;;19.09;76.08;94865.72;5056698;28;20489;-58
2022/07/09 04:45:29;;;;;;;2.60;2.40;;;18.70;99.90;;;19.13;75.45;94867.81;5047935;28;20478;-60
2022/07/09 04:47:59;;;;;;;3.23;2.80;;;18.70;99.90;;;19.18;74.85;94864.56;5050203;28;20876;-59
2022/07/09 04:50:26;;;;;;;3.83;3.10;;;18.80;99.90;;;19.22;75.29;94860.47;5051782;28;20506;-58
2022/07/09 04:52:54;;;;;;;3.30;3.10;;;18.80;99.90;;;19.25;75.29;94865.44;5053023;28;20466;-58
2022/07/09 04:55:22;;;;;;;4.60;3.20;;;18.80;99.90;;;19.30;74.99;94867.50;5058218;28;20558;-60
2022/07/09 04:57:49;;;;;;;2.97;2.77;;;18.90;99.90;;;19.33;74.59;94862.63;5055826;28;20468;-59
2022/07/09 05:00:16;;;;;;;4.93;2.70;;;18.90;99.90;;;19.38;74.62;94877.22;5053758;28;20501;-61
2022/07/09 05:02:44;;;;;;;3.20;3.00;;;19.00;99.90;;;19.42;74.81;94870.47;5052483;28;20502;-61
2022/07/09 05:05:13;;;;;;;3.60;2.77;;;19.00;99.90;;;19.46;74.62;94871.75;5050297;28;20839;-59
2022/07/09 05:07:41;;;;;;;5.57;3.03;;;19.00;99.90;;;19.47;74.67;94873.38;5049582;28;20573;-58
2022/07/09 05:10:09;;;;;;;3.00;2.80;;;19.10;99.90;;;19.48;73.87;94873.19;5052471;28;20439;-60
2022/07/09 05:12:38;;;;;;;2.90;2.70;;;19.10;99.90;;;19.52;73.61;94876.31;5051605;28;20456;-59
2022/07/09 05:15:07;;;;;;;2.77;2.57;;;19.10;99.90;;;19.54;73.96;94879.59;5056004;28;20451;-59
2022/07/09 05:17:35;;;;;;;4.20;3.80;;;19.10;99.90;;;19.57;73.76;94883.72;5054165;28;20869;-59
2022/07/09 05:20:04;;;;;;;4.00;3.13;;;19.20;99.90;;;19.59;74.30;94887.81;5053057;28;20548;-59
2022/07/09 05:22:33;;;;;;;2.20;2.10;;;19.20;99.90;;;19.62;73.93;94892.78;5057631;28;20951;-59
2022/07/09 05:25:00;;;;;;;3.07;2.97;;;19.20;99.90;;;19.63;74.05;94889.09;5048790;28;20456;-58
2022/07/09 05:27:28;;;;;;;8.67;3.40;;;19.20;99.90;;;19.64;73.78;94888.09;5052714;28;20894;-60
2022/07/09 05:29:56;;;;;;;3.47;3.27;;;19.20;99.90;;;19.65;73.53;94892.38;5060617;28;20501;-60
2022/07/09 05:32:23;;;;;;;3.07;2.87;;;19.20;99.90;;;19.66;73.33;94894.03;5061140;28;20536;-60
2022/07/09 05:34:51;;;;;;;4.60;2.43;;;19.20;99.90;;;19.68;73.64;94892.00;5061521;28;20443;-58
2022/07/09 05:37:18;;;;;;;3.67;3.03;;;19.30;99.90;;;19.71;73.62;94907.63;5061449;28;20471;-59
2022/07/09 05:39:47;;;;;;;3.60;2.33;;;19.30;99.90;;;19.74;73.60;94900.25;5053917;28;20851;-60
2022/07/09 05:42:14;;;;;;;3.10;2.80;;;19.40;99.90;;;19.79;73.62;94900.50;5057691;28;20470;-59
2022/07/09 05:44:43;;;;;;;2.10;2.00;;;19.30;99.90;;;19.81;73.33;94895.78;5047689;28;20455;-60
2022/07/09 05:47:11;;;;;;;2.17;1.97;;;19.40;99.90;;;19.81;73.02;94904.63;5057763;28;20946;-61
2022/07/09 05:49:38;;;;;;;2.57;2.37;;;19.40;99.90;;;19.83;73.63;94896.41;5059210;28;20916;-60
2022/07/09 05:52:06;;;;;;;5.20;2.80;;;19.40;99.90;;;19.87;73.34;94895.00;5062130;28;20482;-61
2022/07/09 05:54:34;;;;;;;2.40;2.20;;;19.40;99.90;;;19.93;73.57;94899.56;5061285;28;21013;-60
2022/07/09 05:57:03;;;;;;;3.00;2.80;;;19.50;99.90;;;20.00;73.02;94900.44;5062058;28;20462;-59
2022/07/09 05:59:30;;;;;;;4.03;2.33;;;19.50;99.90;;;20.05;73.01;94900.66;5058001;28;20499;-60
2022/07/09 06:01:57;;;;;;;3.07;2.90;;;19.60;99.90;;;20.11;72.48;94903.53;5056973;28;20459;-59
2022/07/09 06:04:26;;;;;;;4.20;2.73;;;19.70;99.90;;;20.13;72.56;94896.19;5054050;28;20456;-59
2022/07/09 06:06:53;;;;;;;2.10;2.00;;;19.70;99.90;;;20.15;72.20;94904.81;5057968;28;20501;-60
2022/07/09 06:09:21;;;;;;;1.80;1.70;;;19.70;99.90;;;20.18;72.17;94899.06;5059324;28;20446;-59
2022/07/09 06:11:48;;;;;;;2.73;1.60;;;19.70;99.90;;;20.20;71.99;94905.03;5061730;28;20551;-60
2022/07/09 06:14:17;;;;;;;2.23;2.03;;;19.70;99.90;;;20.23;72.07;94910.81;5060613;28;20845;-59
2022/07/09 06:16:46;;;;;;;2.27;2.17;;;19.80;99.90;;;20.26;71.93;94914.91;5061768;28;20471;-60
2022/07/09 06:19:14;;;;;;;6.23;2.70;;;19.80;99.90;;;20.29;71.94;94911.84;5056370;28;20504;-59
2022/07/09 06:21:41;;;;;;;1.80;1.70;;;19.80;99.90;;;20.31;71.81;94912.50;5055893;28;20553;-60
2022/07/09 06:24:09;;;;;;;6.03;2.37;;;19.90;99.90;;;20.33;71.79;94914.97;5058702;28;20541;-59
2022/07/09 06:26:36;;;;;;;3.00;2.27;;;19.90;99.90;;;20.30;71.69;94918.84;5060838;28;20501;-61
2022/07/09 06:29:03;;;;;;;6.23;3.50;;;19.90;99.90;;;20.32;71.90;94918.66;5061935;28;20447;-60
2022/07/09 06:31:32;;;;;;;2.67;2.47;;;19.90;99.90;;;20.36;71.58;94919.91;5060593;28;20482;-62
2022/07/09 06:33:59;;;;;;;2.90;2.63;;;19.90;99.90;;;20.39;71.72;94920.31;5060913;28;20466;-60
2022/07/09 06:36:27;;;;;;;2.40;2.30;;;20.00;99.90;;;20.42;71.83;94919.91;5061429;28;20479;-59
2022/07/09 06:41:39;;;;;;;2.40;2.30;;;20.00;99.90;;;20.45;71.76;94915.19;5057946;28;20514;-62
2022/07/09 06:44:06;;;;;;;4.73;2.80;;;20.00;99.90;;;20.49;71.66;94919.13;5057099;28;20463;-60
2022/07/09 06:46:35;;;;;;;3.17;2.90;;;20.10;99.90;;;20.51;71.18;94925.06;5057421;28;20498;-59
2022/07/09 06:49:03;;;;;;;2.90;2.60;;;20.10;99.90;;;20.54;70.91;94930.03;5059201;28;20443;-60
2022/07/09 06:51:30;;;;;;;2.50;2.07;;;20.10;99.90;;;20.55;71.05;94932.50;5059691;28;20800;-62
2022/07/09 06:53:58;;;;;;;3.03;2.20;;;20.10;99.90;;;20.56;71.00;94931.47;5061358;28;20465;-60
2022/07/09 06:56:25;;;;;;;13.30;2.30;;;20.10;99.90;;;20.55;70.83;94919.13;5059472;28;20476;-61
2022/07/09 06:58:53;;;;;;;2.47;1.87;;;20.10;99.90;;;20.56;71.17;94925.31;5064039;28;20454;-60
2022/07/09 07:01:20;;;;;;;3.33;2.77;;;20.10;99.90;;;20.59;70.93;94925.75;5057935;28;20490;-60
2022/07/09 07:03:49;;;;;;;2.30;2.20;;;20.10;99.90;;;20.61;71.33;94928.22;5055977;28;20447;-60
2022/07/09 07:06:16;;;;;;;3.10;2.90;;;20.20;99.90;;;20.60;71.18;94921.19;5058699;28;20516;-63
2022/07/09 07:08:44;;;;;;;2.50;2.40;;;20.20;99.90;;;20.59;71.30;94919.56;5061610;28;20435;-60
2022/07/09 07:11:11;;;;;;;3.13;2.40;;;20.10;99.90;;;20.57;71.00;94922.44;5061895;28;20479;-62
2022/07/09 07:13:38;;;;;;;3.77;2.50;;;20.10;99.90;;;20.57;71.27;94924.28;5058645;28;20534;-59
2022/07/09 07:16:07;;;;;;;2.90;2.70;;;20.10;99.90;;;20.58;71.06;94928.59;5059425;28;20474;-62
2022/07/09 07:18:34;;;;;;;3.93;2.30;;;20.10;99.90;;;20.58;71.36;94925.94;5058904;28;20711;-59
2022/07/09 07:21:03;;;;;;;3.10;2.93;;;20.20;99.90;;;20.62;71.12;94929.88;5058455;28;20514;-62
2022/07/09 07:23:31;;;;;;;2.67;2.57;;;20.20;99.90;;;20.64;71.43;94925.13;5058139;28;20458;-63
2022/07/09 07:25:59;;;;;;;3.03;2.73;;;20.20;99.90;;;20.65;71.17;94924.16;5057211;28;20940;-60
2022/07/09 07:28:26;;;;;;;3.07;2.97;;;20.20;99.90;;;20.68;71.12;94928.25;5058261;28;20466;-60
2022/07/09 07:30:54;;;;;;;2.90;2.70;;;20.20;99.90;;;20.74;71.35;94930.13;5060556;28;20902;-64
2022/07/09 07:33:21;;;;;;;2.87;2.53;;;20.30;99.90;;;20.81;71.12;94932.84;5059914;28;20463;-60
2022/07/09 07:35:49;;;;;;;2.93;2.73;;;20.30;99.90;;;20.88;71.05;94930.97;5058900;28;20514;-62
2022/07/09 07:38:17;;;;;;;2.80;2.60;;;20.40;99.90;;;21.00;71.42;94932.03;5054719;28;20455;-61
2022/07/09 07:40:45;;;;;;;2.90;2.70;;;20.50;99.90;;;21.14;70.99;94928.34;5065163;28;20474;-62
2022/07/09 07:43:12;;;;;;;4.90;2.97;;;20.70;99.90;;;21.28;70.39;94923.00;5057180;28;20885;-63
2022/07/09 07:45:40;;;;;;;2.67;2.57;;;20.70;99.90;;;21.38;69.77;94926.13;5060726;28;20540;-62
2022/07/09 07:48:08;;;;;;;2.63;2.43;;;20.90;99.90;;;21.47;69.42;94927.56;5058374;28;20451;-62
2022/07/09 07:50:38;;;;;;;3.00;2.80;;;21.00;99.90;;;21.57;69.13;94929.03;5061114;28;20470;-60
2022/07/09 07:53:06;;;;;;;2.87;2.67;;;21.10;99.90;;;21.61;69.06;94930.22;5061502;28;20537;-62
2022/07/09 07:55:35;;;;;;;2.40;2.30;;;21.20;99.90;;;21.64;69.23;94933.34;5058632;28;20490;-63
2022/07/09 07:58:02;;;;;;;3.13;2.77;;;21.20;99.90;;;21.65;68.67;94928.81;5058942;28;20451;-60
2022/07/09 08:00:30;;;;;;;3.50;2.40;;;21.20;99.90;;;21.66;69.06;94931.28;5060285;28;20493;-61
2022/07/09 08:02:57;;;;;;;3.73;2.20;;;21.20;99.90;;;21.67;68.57;94930.25;5056604;28;20451;-59
2022/07/09 08:05:25;;;;;;;2.40;2.27;;;21.20;99.90;;;21.65;68.44;94924.25;5058782;28;20498;-61
2022/07/09 08:07:53;;;;;;;2.43;2.33;;;21.20;99.90;;;21.66;68.56;94935.81;5060031;28;21022;-61
2022/07/09 08:10:20;;;;;;;4.53;2.30;;;21.20;99.90;;;21.67;68.54;94924.06;5059151;28;20475;-60
2022/07/09 08:12:50;;;;;;;2.33;2.23;;;21.20;99.90;;;21.72;68.37;94929.63;5060618;28;20871;-61
2022/07/09 08:15:17;;;;;;;2.57;2.47;;;21.30;99.90;;;21.85;68.19;94924.25;5056738;28;20809;-61
2022/07/09 08:17:45;;;;;;;2.83;2.70;;;21.40;99.90;;;21.97;68.06;94915.59;5056050;28;20435;-60
2022/07/09 08:20:12;;;;;;;2.50;2.40;;;21.50;99.90;;;22.15;67.82;94917.56;5058397;28;20498;-61
2022/07/09 08:22:40;;;;;;;2.80;2.60;;;21.60;99.90;;;22.40;67.09;94923.06;5058869;28;20522;-62
2022/07/09 08:25:09;;;;;;;2.70;2.20;;;21.80;99.90;;;22.60;66.68;94927.53;5060531;28;20478;-62
2022/07/09 08:27:36;;;;;;;3.07;2.87;;;22.10;99.90;;;22.78;65.92;94924.16;5060149;28;20463;-61
2022/07/09 08:30:07;;;;;;;2.87;2.67;;;22.20;99.90;;;22.91;63.52;94919.56;5053226;28;20470;-61
2022/07/09 08:32:35;;;;;;;3.97;2.37;;;22.40;99.90;;;22.96;64.04;94920.75;5059693;28;20438;-62
2022/07/09 08:35:03;;;;;;;3.00;2.80;;;22.40;99.90;;;22.95;64.70;94921.81;5058923;28;20451;-60
2022/07/09 08:37:30;;;;;;;5.30;2.57;;;22.50;99.90;;;22.96;64.67;94924.28;5059511;28;20479;-62
2022/07/09 08:39:57;;;;;;;2.17;2.07;;;22.50;99.90;;;22.99;64.11;94928.38;5056056;28;20454;-61
2022/07/09 08:42:25;;;;;;;2.50;2.40;;;22.50;99.90;;;23.02;63.20;94922.56;5060996;28;20447;-60
2022/07/09 08:44:52;;;;;;;2.33;2.17;;;22.50;99.90;;;23.01;63.91;94927.13;5058821;28;20439;-61
2022/07/09 08:47:21;;;;;;;2.73;2.53;;;22.50;99.90;;;22.99;63.75;94933.72;5058951;28;20504;-62
2022/07/09 08:49:48;;;;;;;2.90;2.70;;;22.50;99.90;;;22.97;63.99;94933.13;5054592;28;20540;-60
2022/07/09 08:52:17;;;;;;;2.97;2.73;;;22.50;99.90;;;22.94;64.10;94926.31;5056003;28;21026;-60
2022/07/09 08:54:44;;;;;;;3.13;2.37;;;22.50;99.90;;;22.96;64.73;94936.84;5053774;28;20450;-61
2022/07/09 08:57:12;;;;;;;5.63;3.30;;;22.50;99.90;;;22.96;64.00;94928.78;5054922;28;20821;-62
2022/07/09 08:59:39;;;;;;;3.33;2.83;;;22.50;99.90;;;22.94;63.84;94939.75;5056310;28;21038;-63
2022/07/09 09:02:08;;;;;;;3.03;2.83;;;22.50;99.90;;;22.93;63.99;94932.75;5056570;28;20526;-64
2022/07/09 09:04:39;;;;;;;15.00;5.43;;;22.40;99.90;;;22.92;64.69;94937.28;5058643;28;20807;-63
2022/07/09 09:07:15;;;;;;;5.13;2.83;;;22.40;99.90;;;22.98;64.34;94940.16;5058231;28;20920;-60
2022/07/09 09:09:42;;;;;;;10.03;5.00;;;22.50;99.90;;;23.00;63.66;94930.03;5057867;28;20489;-62
2022/07/09 09:12:10;;;;;;;2.40;2.20;;;22.50;99.90;;;23.00;63.46;94936.19;5055306;28;20569;-61
2022/07/09 09:14:37;;;;;;;7.30;3.60;;;22.50;99.90;;;22.97;63.65;94933.13;5056367;28;20823;-60
2022/07/09 09:17:06;;;;;;;2.90;2.70;;;22.50;99.90;;;22.96;63.83;94928.78;5056655;28;20994;-60
2022/07/09 09:19:34;;;;;;;3.67;2.60;;;22.50;99.90;;;22.93;64.35;94940.78;5056158;28;20447;-61
2022/07/09 09:22:03;;;;;;;10.70;3.10;;;22.40;99.90;;;22.85;63.92;94933.81;5061250;28;20514;-60
2022/07/09 09:24:31;;;;;;;3.23;2.93;;;22.40;99.90;;;22.80;64.67;94930.94;5063569;28;20438;-61
2022/07/09 09:26:59;;;;;;;5.70;2.20;;;22.30;99.90;;;22.78;64.46;94938.38;5062305;28;20466;-62
2022/07/09 09:29:27;;;;;;;4.30;2.47;;;22.30;99.90;;;22.76;64.62;94940.47;5059615;28;20443;-62
2022/07/09 09:31:54;;;;;;;3.40;2.00;;;22.30;99.90;;;22.77;63.89;94943.97;5057305;28;20475;-61
2022/07/09 09:34:22;;;;;;;10.93;2.80;;;22.30;99.90;;;22.77;64.66;94933.25;5060807;28;20462;-61
2022/07/09 09:36:51;;;;;;;2.30;2.17;;;22.30;99.90;;;22.78;64.63;94934.91;5059108;28;20465;-60
2022/07/09 09:39:21;;;;;;;2.20;2.10;;;22.30;99.90;;;22.77;64.51;94931.38;5059879;28;20435;-63
2022/07/09 09:41:50;;;;;;;5.80;2.20;;;22.30;99.90;;;22.74;64.50;94929.97;5060070;28;20576;-61
2022/07/09 09:44:19;;;;;;;4.80;2.53;;;22.30;99.90;;;22.71;64.58;94926.88;5061837;28;20974;-61
2022/07/09 09:46:47;;;;;;;3.00;2.10;;;22.30;99.90;;;22.62;64.50;94938.88;5063400;28;21701;-62
2022/07/09 09:49:15;;;;;;;3.73;2.70;;;22.20;99.90;;;22.50;65.69;94942.22;5062098;28;20447;-60
2022/07/09 09:51:48;;;;;;;2.97;2.77;;;22.10;99.90;;;22.37;65.43;94943.09;5062005;28;20540;-60
2022/07/09 09:54:16;;;;;;;2.90;2.33;;;22.00;99.90;;;22.27;66.16;94936.50;5056663;28;20455;-61
2022/07/09 09:56:45;;;;;;;2.43;2.23;;;21.80;99.90;;;22.19;66.04;94935.69;5059869;28;20566;-60
2022/07/09 09:59:13;;;;;;;2.87;2.67;;;21.80;99.90;;;22.13;66.26;94936.53;5058106;28;20455;-60
2022/07/09 10:01:40;;;;;;;4.43;2.40;;;21.70;99.90;;;22.08;66.19;94936.34;5061646;28;20954;-61
2022/07/09 10:04:08;;;;;;;12.93;3.27;;;21.70;99.90;;;22.03;66.26;94934.31;5059676;28;20486;-62
2022/07/09 10:06:35;;;;;;;3.30;2.43;;;21.60;99.90;;;22.01;66.64;94927.50;5060249;28;20532;-60
2022/07/09 10:09:03;;;;;;;4.27;2.30;;;21.60;99.90;;;21.99;67.22;94937.63;5058952;28;20473;-62
2022/07/09 10:11:40;;;;;;;2.43;2.23;;;21.60;99.90;;;21.98;66.82;94941.31;5059890;28;20478;-63
2022/07/09 10:14:09;;;;;;;3.43;2.20;;;21.60;99.90;;;21.96;67.51;94930.00;5059434;28;20442;-59
2022/07/09 10:16:38;;;;;;;2.57;2.37;;;21.60;99.90;;;21.92;67.27;94934.13;5062410;28;20461;-61
2022/07/09 10:19:05;;;;;;;5.37;2.30;;;21.50;99.90;;;21.88;67.54;94938.25;5061482;28;20446;-61
2022/07/09 10:21:37;;;;;;;2.87;2.67;;;21.50;99.90;;;21.87;67.37;94948.13;5063668;28;20487;-62
2022/07/09 10:24:05;;;;;;;1.97;1.87;;;21.40;99.90;;;21.89;67.67;94950.59;5061311;28;20790;-61
2022/07/09 10:26:46;;;;;;;3.90;2.20;;;21.50;99.90;;;21.89;68.20;94950.59;5061488;28;21032;-61